Dillon, CO (80435)

4:17 AM MDT on April 29, 2017 (GMT -0600)
Dillon | | Change Station
Active Advisory: Winter Weather Advisory Active Notice: Public Information Statement

Elev 9286 ft 39.64 °N, 106.04 °W | Updated 27 seconds ago

Mostly Cloudy
Mostly Cloudy
15.3 °F
Feels Like 15 °F
N
2.0
Wind Variable Wind from ESE

Today
High -- | Low -- °F
--% Chance of Precip.
Yesterday
High -- | Low -- °F
Precip. -- in
Pressure 29.89 in
Visibility 10.0 miles
Clouds Few 800 ft
Mostly Cloudy 3200 ft
Overcast 10000 ft
Windchill 15 °F
Dew Point 6 °F
Humidity 66%
Rainfall 0.00 in
Snow Depth Not available.
6:07 AM 7:56 PM
Waxing Crescent, 12% visible
SPECI KLXV 291013Z AUTO 18005KT 10SM FEW008 BKN032 OVC100 M10/M12 A2989 RMK AO2 T11001117
Pressure 29.89 in
Visibility 10.0 miles
Clouds Few 800 ft
Mostly Cloudy 3200 ft
Overcast 10000 ft
Windchill 15 °F
Dew Point 6 °F
Humidity 66%
Rainfall 0.00 in
Snow Depth Not available.
6:07 AM 7:56 PM
Waxing Crescent, 12% visible
SPECI KLXV 291013Z AUTO 18005KT 10SM FEW008 BKN032 OVC100 M10/M12 A2989 RMK AO2 T11001117

Get Your Daily Forecast Email!

Thanks for signing up!

Be on the lookout for a verification email in your inbox.

You'll start receiving severe weather alerts in your inbox..

×

10-Day Weather Forecast

Almanac

Astronomy

Apr. 29, 2017 Rise Set
Actual Time
Civil Twilight
Nautical Twilight
Astronomical Twilight
Moon
Length of Visible Light
Length of Day
Tomorrow will be .
, % of the Moon is Illuminated

Today's Extremes

State Highs State Lows

Community

WunderPhotos

WunderBlog® & News

Nearby

Air Quality

  Air Quality AQ Index Pollutant
Not available.

Snow Depth

Station Depth Elevation

Earthquake Activity

City Distance Mag. Time & Date
Minimum magnitude displayed is 2.5.

Coastal Water Temperatures

Place Temperature

Stations

Nearby Weather Stations

Station Location Temp. Windchill Dew Point Humidity Wind Precip. Elev Updated Type
                   

Watches & Warnings

Winter Weather Advisory
Issued: 4:15 PM MDT Apr. 28, 2017 – National Weather Service

... Winter Weather Advisory remains in effect until 6 PM MDT
Saturday...

* timing... snow will become widespread across the higher mountains
and Park County this afternoon and may be heavy at times on the
eastern slope of the Front Range. Snow will continue through
tonight, and then gradually decrease Saturday.

* Snow accumulations... 6-12 inches on the eastern slope of the
Front Range and in South Park, and 2-6 inches west of The Divide.

* Wind/visibility... northeast winds 15 to 25 mph. Visibility may
be reduced to a quarter mile in heavy snow.

* Impacts... roads will become snow and slush covered with the
heavier snowfall late this afternoon and evening. Hazardous
travel conditions will linger into Saturday.

Precautionary/preparedness actions...

A Winter Weather Advisory means that periods of snow will cause
travel difficulties. Be prepared for slippery roads and limited
visibilities... and use caution while driving.